createdAt,value
2018-06-17T00:00:01.898Z,56
2018-06-17T00:00:14.537Z,57
2018-06-17T00:00:27.007Z,57
2018-06-17T00:00:39.485Z,57
2018-06-17T00:00:51.905Z,57
2018-06-17T00:01:04.477Z,57
2018-06-17T00:01:16.901Z,56
2018-06-17T00:01:29.325Z,56
2018-06-17T00:01:41.765Z,56
2018-06-17T00:01:54.173Z,56
2018-06-17T00:02:06.590Z,57
2018-06-17T00:02:18.986Z,57
2018-06-17T00:02:31.535Z,57
2018-06-17T00:02:43.997Z,57
2018-06-17T00:02:56.407Z,57
2018-06-17T00:03:08.826Z,57
2018-06-17T00:03:21.271Z,57
2018-06-17T00:03:33.686Z,57
2018-06-17T00:03:46.094Z,57
2018-06-17T00:03:58.510Z,57
2018-06-17T00:04:10.915Z,57
2018-06-17T00:04:23.309Z,57
2018-06-17T00:04:35.707Z,57
2018-06-17T00:04:48.105Z,57
2018-06-17T00:05:00.516Z,57
2018-06-17T00:05:12.938Z,57
2018-06-17T00:05:25.375Z,57
2018-06-17T00:05:37.832Z,57
2018-06-17T00:05:50.253Z,57
2018-06-17T00:06:02.649Z,57
2018-06-17T00:06:15.083Z,57
2018-06-17T00:06:27.477Z,57
2018-06-17T00:06:39.870Z,57
2018-06-17T00:06:52.298Z,57
2018-06-17T00:07:04.856Z,56
2018-06-17T00:07:17.240Z,56
2018-06-17T00:07:29.684Z,56
2018-06-17T00:07:42.222Z,56
2018-06-17T00:07:54.601Z,56
2018-06-17T00:08:07.000Z,57
2018-06-17T00:08:19.415Z,57
2018-06-17T00:08:31.823Z,57
2018-06-17T00:08:44.225Z,57
2018-06-17T00:08:56.611Z,56
2018-06-17T00:09:09.051Z,56
2018-06-17T00:09:21.447Z,56
2018-06-17T00:09:33.874Z,56
2018-06-17T00:09:46.274Z,57
2018-06-17T00:09:58.687Z,57
2018-06-17T00:10:11.166Z,57
2018-06-17T00:10:23.571Z,57
2018-06-17T00:10:35.978Z,56
2018-06-17T00:10:48.381Z,56
2018-06-17T00:11:00.789Z,56
2018-06-17T00:11:13.199Z,56
2018-06-17T00:11:25.607Z,56
2018-06-17T00:11:38.015Z,56
2018-06-17T00:11:50.440Z,56
2018-06-17T00:12:02.855Z,56
2018-06-17T00:12:15.247Z,56
2018-06-17T00:12:27.650Z,56
2018-06-17T00:12:40.050Z,56
2018-06-17T00:12:52.479Z,56
2018-06-17T00:13:04.887Z,56
2018-06-17T00:13:17.286Z,56
2018-06-17T00:13:29.677Z,56
2018-06-17T00:13:42.057Z,56
2018-06-17T00:13:54.452Z,56
2018-06-17T00:14:06.859Z,56
2018-06-17T00:14:19.286Z,56
2018-06-17T00:14:31.717Z,56
2018-06-17T00:14:44.124Z,56
2018-06-17T00:14:56.538Z,56
2018-06-17T00:15:08.966Z,56
2018-06-17T00:15:21.355Z,56
2018-06-17T00:15:33.760Z,56
2018-06-17T00:15:46.176Z,56
2018-06-17T00:15:58.600Z,56
2018-06-17T00:16:11.030Z,56
2018-06-17T00:16:23.485Z,56
2018-06-17T00:16:35.901Z,56
2018-06-17T00:16:48.298Z,56
2018-06-17T00:17:00.688Z,56
2018-06-17T00:17:13.088Z,56
2018-06-17T00:17:25.479Z,56
2018-06-17T00:17:37.872Z,56
2018-06-17T00:17:50.281Z,56
2018-06-17T00:18:02.877Z,56
2018-06-17T00:18:15.291Z,56
2018-06-17T00:18:27.677Z,56
2018-06-17T00:18:40.068Z,56
2018-06-17T00:18:52.493Z,56
2018-06-17T00:19:05.407Z,56
2018-06-17T00:19:17.786Z,56
2018-06-17T00:19:30.208Z,56
2018-06-17T00:19:42.635Z,56
2018-06-17T00:19:55.047Z,56
2018-06-17T00:20:07.451Z,56
2018-06-17T00:20:19.837Z,56
2018-06-17T00:20:32.235Z,56
2018-06-17T00:20:44.641Z,56
2018-06-17T00:20:57.038Z,56
2018-06-17T00:21:09.466Z,56
2018-06-17T00:21:21.884Z,56
2018-06-17T00:21:34.284Z,56
2018-06-17T00:21:46.668Z,56
2018-06-17T00:21:59.082Z,56
2018-06-17T00:22:11.460Z,56
2018-06-17T00:22:23.841Z,56
2018-06-17T00:22:36.247Z,56
2018-06-17T00:22:48.739Z,56
2018-06-17T00:23:01.199Z,56
2018-06-17T00:23:13.612Z,56
2018-06-17T00:23:26.027Z,56
2018-06-17T00:23:38.452Z,56
2018-06-17T00:23:50.910Z,56
2018-06-17T00:24:03.322Z,56
2018-06-17T00:24:15.742Z,56
2018-06-17T00:24:28.135Z,56
2018-06-17T00:24:40.538Z,56
2018-06-17T00:24:53.154Z,56
2018-06-17T00:25:05.575Z,56
2018-06-17T00:25:17.973Z,56
2018-06-17T00:25:30.380Z,56
2018-06-17T00:25:42.796Z,56
2018-06-17T00:25:55.200Z,56
2018-06-17T00:26:07.603Z,56
2018-06-17T00:26:20.012Z,56
2018-06-17T00:26:32.426Z,56
2018-06-17T00:26:44.840Z,56
2018-06-17T00:26:57.251Z,56
2018-06-17T00:27:09.678Z,56
2018-06-17T00:27:22.225Z,56
2018-06-17T00:27:34.616Z,56
2018-06-17T00:27:47.026Z,56
2018-06-17T00:27:59.415Z,56
2018-06-17T00:28:11.806Z,56
2018-06-17T00:28:24.203Z,56
2018-06-17T00:28:36.606Z,56
2018-06-17T00:28:49.175Z,56
2018-06-17T00:29:01.566Z,56
2018-06-17T00:29:13.969Z,56
2018-06-17T00:29:26.386Z,56
2018-06-17T00:29:38.769Z,56
2018-06-17T00:29:51.152Z,56
2018-06-17T00:30:03.544Z,56
2018-06-17T00:30:15.966Z,56
2018-06-17T00:30:28.375Z,56
2018-06-17T00:30:40.784Z,56
2018-06-17T00:30:53.174Z,56
2018-06-17T00:31:05.571Z,56
2018-06-17T00:31:17.979Z,56
2018-06-17T00:31:30.384Z,56
2018-06-17T00:31:42.769Z,56
2018-06-17T00:31:55.168Z,56
2018-06-17T00:32:07.559Z,56
2018-06-17T00:32:19.948Z,56
2018-06-17T00:32:32.354Z,56
2018-06-17T00:32:44.785Z,56
2018-06-17T00:32:57.180Z,56
2018-06-17T00:33:09.577Z,56
2018-06-17T00:33:22.032Z,56
2018-06-17T00:33:34.429Z,56
2018-06-17T00:33:46.990Z,56
2018-06-17T00:33:59.401Z,56
2018-06-17T00:34:11.798Z,56
2018-06-17T00:34:24.244Z,57
2018-06-17T00:34:36.666Z,57
2018-06-17T00:34:49.078Z,57
2018-06-17T00:35:01.481Z,57
2018-06-17T00:35:13.888Z,57
2018-06-17T00:35:26.282Z,57
2018-06-17T00:35:38.735Z,57
2018-06-17T00:35:51.131Z,57
2018-06-17T00:36:03.528Z,57
2018-06-17T00:36:15.917Z,57
2018-06-17T00:36:28.311Z,57
2018-06-17T00:36:40.721Z,57
2018-06-17T00:36:53.115Z,57
2018-06-17T00:37:05.507Z,57
2018-06-17T00:37:17.927Z,57
2018-06-17T00:37:30.327Z,57
2018-06-17T00:37:42.724Z,57
2018-06-17T00:37:55.111Z,57
2018-06-17T00:38:07.651Z,57
2018-06-17T00:38:20.098Z,57
2018-06-17T00:38:32.487Z,57
2018-06-17T00:38:44.893Z,57
2018-06-17T00:38:57.290Z,57
2018-06-17T00:39:09.903Z,57
2018-06-17T00:39:22.317Z,57
2018-06-17T00:39:34.718Z,57
2018-06-17T00:39:47.119Z,57
2018-06-17T00:39:59.524Z,57
2018-06-17T00:40:11.937Z,57
2018-06-17T00:40:24.362Z,57
2018-06-17T00:40:36.766Z,57
2018-06-17T00:40:49.157Z,57
2018-06-17T00:41:01.560Z,57
2018-06-17T00:41:13.950Z,57
2018-06-17T00:41:26.347Z,57
2018-06-17T00:41:38.735Z,57
2018-06-17T00:41:51.218Z,57
2018-06-17T00:42:03.626Z,57
2018-06-17T00:42:16.040Z,57
2018-06-17T00:42:28.438Z,57
2018-06-17T00:42:40.849Z,57
2018-06-17T00:42:53.233Z,57
2018-06-17T00:43:05.630Z,57
2018-06-17T00:43:18.045Z,57
2018-06-17T00:43:30.435Z,57
2018-06-17T00:43:42.847Z,57
2018-06-17T00:43:55.301Z,57
2018-06-17T00:44:07.699Z,57
2018-06-17T00:44:20.107Z,57
2018-06-17T00:44:32.509Z,57
2018-06-17T00:44:44.896Z,57
2018-06-17T00:44:57.307Z,57
2018-06-17T00:45:09.710Z,57
2018-06-17T00:45:22.115Z,57
2018-06-17T00:45:34.526Z,57
2018-06-17T00:45:46.916Z,57
2018-06-17T00:45:59.436Z,57
2018-06-17T00:46:11.833Z,57
2018-06-17T00:46:24.244Z,57
2018-06-17T00:46:36.633Z,57
2018-06-17T00:46:49.070Z,57
2018-06-17T00:47:01.491Z,57
2018-06-17T00:47:14.250Z,57
2018-06-17T00:47:27.350Z,57
2018-06-17T00:47:39.760Z,57
2018-06-17T00:47:52.196Z,57
2018-06-17T00:48:04.603Z,57
2018-06-17T00:48:16.994Z,57
2018-06-17T00:48:29.501Z,57
2018-06-17T00:48:42.190Z,57
2018-06-17T00:48:54.604Z,57
2018-06-17T00:49:07.013Z,57
2018-06-17T00:49:19.427Z,57
2018-06-17T00:49:31.809Z,57
2018-06-17T00:49:44.215Z,57
2018-06-17T00:49:56.633Z,57
2018-06-17T00:50:09.065Z,57
2018-06-17T00:50:21.469Z,57
2018-06-17T00:50:33.869Z,57
2018-06-17T00:50:46.275Z,57
2018-06-17T00:50:58.664Z,57
2018-06-17T00:51:11.125Z,57
2018-06-17T00:51:23.541Z,57
2018-06-17T00:51:35.942Z,57
2018-06-17T00:51:48.348Z,57
2018-06-17T00:52:00.751Z,57
2018-06-17T00:52:13.143Z,57
2018-06-17T00:52:25.563Z,57
2018-06-17T00:52:37.960Z,57
2018-06-17T00:52:50.365Z,57
2018-06-17T00:53:02.759Z,57
2018-06-17T00:53:15.496Z,57
2018-06-17T00:53:27.897Z,57
2018-06-17T00:53:40.293Z,57
2018-06-17T00:53:52.695Z,57
2018-06-17T00:54:05.091Z,58
2018-06-17T00:54:17.504Z,58
2018-06-17T00:54:29.911Z,58
2018-06-17T00:54:42.320Z,58
2018-06-17T00:54:54.717Z,57
2018-06-17T00:55:07.171Z,57
2018-06-17T00:55:19.579Z,57
2018-06-17T00:55:32.000Z,57
2018-06-17T00:55:44.401Z,57
2018-06-17T00:55:56.817Z,57
2018-06-17T00:56:09.214Z,57
2018-06-17T00:56:21.618Z,57
2018-06-17T00:56:34.013Z,57
2018-06-17T00:56:46.413Z,58
2018-06-17T00:56:58.824Z,58
2018-06-17T00:57:11.229Z,58
2018-06-17T00:57:23.623Z,58
2018-06-17T00:57:36.036Z,57
2018-06-17T00:57:48.448Z,57
2018-06-17T00:58:00.826Z,57
2018-06-17T00:58:13.245Z,57
2018-06-17T00:58:25.633Z,58
2018-06-17T00:58:38.052Z,58
2018-06-17T00:58:50.439Z,58
2018-06-17T00:59:02.843Z,58
2018-06-17T00:59:15.256Z,57
2018-06-17T00:59:27.651Z,57
2018-06-17T00:59:40.049Z,57
2018-06-17T00:59:52.421Z,57
2018-06-17T01:00:04.823Z,57
2018-06-17T01:00:17.265Z,57
2018-06-17T01:00:29.700Z,57
2018-06-17T01:00:42.135Z,57
2018-06-17T01:00:54.576Z,58
2018-06-17T01:01:07.119Z,58
2018-06-17T01:01:19.547Z,58
2018-06-17T01:01:31.938Z,58
2018-06-17T01:01:44.343Z,58
2018-06-17T01:01:56.770Z,58
2018-06-17T01:02:09.190Z,58
2018-06-17T01:02:21.609Z,58
2018-06-17T01:02:34.176Z,58
2018-06-17T01:02:46.612Z,58
2018-06-17T01:02:59.027Z,58
2018-06-17T01:03:11.448Z,58
2018-06-17T01:03:23.868Z,58
2018-06-17T01:03:36.279Z,58
2018-06-17T01:03:48.668Z,58
2018-06-17T01:04:01.076Z,58
2018-06-17T01:04:13.501Z,58
2018-06-17T01:04:25.951Z,58
2018-06-17T01:04:38.426Z,58
2018-06-17T01:04:50.815Z,58
2018-06-17T01:05:03.326Z,58
2018-06-17T01:05:15.779Z,58
2018-06-17T01:05:28.199Z,58
2018-06-17T01:05:40.621Z,58
2018-06-17T01:05:53.051Z,58
2018-06-17T01:06:05.451Z,58
2018-06-17T01:06:17.831Z,58
2018-06-17T01:06:30.238Z,58
2018-06-17T01:06:42.638Z,58
2018-06-17T01:06:55.033Z,58
2018-06-17T01:07:07.588Z,58
2018-06-17T01:07:19.990Z,58
2018-06-17T01:07:32.401Z,58
2018-06-17T01:07:44.808Z,58
2018-06-17T01:07:57.257Z,58
2018-06-17T01:08:09.682Z,58
2018-06-17T01:08:22.094Z,58
2018-06-17T01:08:34.482Z,58
2018-06-17T01:08:46.914Z,58
2018-06-17T01:08:59.295Z,58
2018-06-17T01:09:11.697Z,58
2018-06-17T01:09:24.106Z,58
2018-06-17T01:09:36.500Z,58
2018-06-17T01:09:48.921Z,58
2018-06-17T01:10:01.353Z,58
2018-06-17T01:10:13.743Z,58
2018-06-17T01:10:26.138Z,58
2018-06-17T01:10:38.554Z,58
2018-06-17T01:10:51.036Z,58
2018-06-17T01:11:03.435Z,58
2018-06-17T01:11:15.849Z,58
2018-06-17T01:11:28.263Z,58
2018-06-17T01:11:40.731Z,58
2018-06-17T01:11:53.141Z,58
2018-06-17T01:12:05.637Z,58
2018-06-17T01:12:18.062Z,58
2018-06-17T01:12:30.466Z,58
2018-06-17T01:12:42.879Z,58
2018-06-17T01:12:55.270Z,58
2018-06-17T01:13:07.669Z,58
2018-06-17T01:13:20.252Z,58
2018-06-17T01:13:32.645Z,58
2018-06-17T01:13:45.084Z,59
2018-06-17T01:13:57.487Z,59
2018-06-17T01:14:09.894Z,59
2018-06-17T01:14:22.298Z,59
2018-06-17T01:14:34.700Z,59
2018-06-17T01:14:47.116Z,59
2018-06-17T01:14:59.504Z,59
2018-06-17T01:15:11.914Z,59
2018-06-17T01:15:24.317Z,59
2018-06-17T01:15:36.728Z,59
2018-06-17T01:15:49.125Z,59
2018-06-17T01:16:01.540Z,59
2018-06-17T01:16:13.949Z,59
2018-06-17T01:16:26.396Z,59
2018-06-17T01:16:38.842Z,59
2018-06-17T01:16:51.243Z,59
2018-06-17T01:17:03.674Z,59
2018-06-17T01:17:16.118Z,59
2018-06-17T01:17:28.579Z,59
2018-06-17T01:17:41.028Z,59
2018-06-17T01:17:53.574Z,59
2018-06-17T01:18:05.984Z,59
2018-06-17T01:18:18.381Z,59
2018-06-17T01:18:30.773Z,59
2018-06-17T01:18:43.179Z,59
2018-06-17T01:18:55.806Z,59
2018-06-17T01:19:08.764Z,59
2018-06-17T01:19:21.184Z,59
2018-06-17T01:19:33.586Z,59
2018-06-17T01:19:46.001Z,59
2018-06-17T01:19:58.401Z,59
2018-06-17T01:20:10.798Z,59
2018-06-17T01:20:23.256Z,59
2018-06-17T01:20:35.709Z,59
2018-06-17T01:20:48.129Z,59
2018-06-17T01:21:00.563Z,59
2018-06-17T01:21:12.970Z,59
2018-06-17T01:21:25.402Z,59
2018-06-17T01:21:37.839Z,59
2018-06-17T01:21:50.236Z,59
2018-06-17T01:22:02.635Z,59
2018-06-17T01:22:15.051Z,59
2018-06-17T01:22:27.487Z,59
2018-06-17T01:22:39.910Z,59
2018-06-17T01:22:52.326Z,59
2018-06-17T01:23:04.724Z,59
2018-06-17T01:23:17.106Z,59
2018-06-17T01:23:29.483Z,59
2018-06-17T01:23:41.883Z,59
2018-06-17T01:23:54.305Z,59
2018-06-17T01:24:06.698Z,59
2018-06-17T01:24:19.123Z,59
2018-06-17T01:24:31.516Z,59
2018-06-17T01:24:43.916Z,59
2018-06-17T01:24:56.708Z,59
2018-06-17T01:25:09.117Z,59
2018-06-17T01:25:21.531Z,59
2018-06-17T01:25:33.910Z,59
2018-06-17T01:25:46.353Z,59
2018-06-17T01:25:58.767Z,59
2018-06-17T01:26:11.215Z,59
2018-06-17T01:26:23.608Z,59
2018-06-17T01:26:36.134Z,59
2018-06-17T01:26:48.521Z,59
2018-06-17T01:27:00.923Z,59
2018-06-17T01:27:13.332Z,59
2018-06-17T01:27:25.877Z,59
2018-06-17T01:27:38.296Z,59
2018-06-17T01:27:50.697Z,59
2018-06-17T01:28:03.114Z,59
2018-06-17T01:28:15.530Z,59
2018-06-17T01:28:27.957Z,59
2018-06-17T01:28:40.355Z,59
2018-06-17T01:28:52.776Z,59
2018-06-17T01:29:05.184Z,59
2018-06-17T01:29:17.592Z,59
2018-06-17T01:29:29.972Z,59
2018-06-17T01:29:42.377Z,59
2018-06-17T01:29:54.766Z,59
2018-06-17T01:30:07.418Z,59
2018-06-17T01:30:19.836Z,59
2018-06-17T01:30:32.240Z,59
2018-06-17T01:30:44.643Z,59
2018-06-17T01:30:57.043Z,59
2018-06-17T01:31:09.444Z,59
2018-06-17T01:31:21.851Z,59
2018-06-17T01:31:34.258Z,59
2018-06-17T01:31:46.669Z,59
2018-06-17T01:31:59.070Z,59
2018-06-17T01:32:11.491Z,59
2018-06-17T01:32:23.873Z,59
2018-06-17T01:32:36.267Z,59
2018-06-17T01:32:48.689Z,59
2018-06-17T01:33:01.076Z,59
2018-06-17T01:33:13.505Z,59
2018-06-17T01:33:25.909Z,59
2018-06-17T01:33:38.293Z,59
2018-06-17T01:33:50.694Z,59
2018-06-17T01:34:03.095Z,59
2018-06-17T01:34:15.501Z,60
2018-06-17T01:34:27.893Z,60
2018-06-17T01:34:40.305Z,60
2018-06-17T01:34:52.711Z,60
2018-06-17T01:35:05.302Z,60
2018-06-17T01:35:17.725Z,60
2018-06-17T01:35:30.130Z,60
2018-06-17T01:35:42.595Z,60
2018-06-17T01:35:55.006Z,60
2018-06-17T01:36:07.387Z,60
2018-06-17T01:36:19.787Z,60
2018-06-17T01:36:32.177Z,60
2018-06-17T01:36:44.582Z,60
2018-06-17T01:36:57.013Z,60
2018-06-17T01:37:09.414Z,60
2018-06-17T01:37:21.807Z,60
2018-06-17T01:37:34.210Z,60
2018-06-17T01:37:46.605Z,60
2018-06-17T01:37:58.996Z,60
2018-06-17T01:38:11.396Z,60
2018-06-17T01:38:23.801Z,60
2018-06-17T01:38:36.183Z,60
2018-06-17T01:38:48.619Z,60
2018-06-17T01:39:01.004Z,60
2018-06-17T01:39:13.428Z,60
2018-06-17T01:39:25.815Z,60
2018-06-17T01:39:38.206Z,60
2018-06-17T01:39:50.746Z,60
2018-06-17T01:40:03.179Z,60
2018-06-17T01:40:15.579Z,60
2018-06-17T01:40:27.998Z,60
2018-06-17T01:40:40.417Z,60
2018-06-17T01:40:52.817Z,60
2018-06-17T01:41:05.218Z,60
2018-06-17T01:41:17.774Z,60
2018-06-17T01:41:30.192Z,60
2018-06-17T01:41:42.590Z,60
2018-06-17T01:41:55.372Z,60
2018-06-17T01:42:07.759Z,60
2018-06-17T01:42:20.176Z,60
2018-06-17T01:42:32.580Z,60
2018-06-17T01:42:45.000Z,60
2018-06-17T01:42:57.385Z,60
2018-06-17T01:43:09.802Z,60
2018-06-17T01:43:22.196Z,60
2018-06-17T01:43:34.618Z,60
2018-06-17T01:43:47.010Z,60
2018-06-17T01:43:59.413Z,60
2018-06-17T01:44:11.813Z,60
2018-06-17T01:44:24.246Z,60
2018-06-17T01:44:36.625Z,60
2018-06-17T01:44:49.028Z,60
2018-06-17T01:45:01.418Z,60
2018-06-17T01:45:13.805Z,60
2018-06-17T01:45:26.210Z,60
2018-06-17T01:45:38.610Z,60
2018-06-17T01:45:50.999Z,60
2018-06-17T01:46:03.556Z,60
2018-06-17T01:46:15.961Z,60
2018-06-17T01:46:28.362Z,60
2018-06-17T01:46:40.748Z,60
2018-06-17T01:46:53.124Z,60
2018-06-17T01:47:05.513Z,60
2018-06-17T01:47:17.944Z,60
2018-06-17T01:47:30.350Z,60
2018-06-17T01:47:42.763Z,60
2018-06-17T01:47:55.155Z,60
2018-06-17T01:48:07.562Z,60
2018-06-17T01:48:19.977Z,60
2018-06-17T01:48:32.514Z,60
2018-06-17T01:48:44.913Z,60
2018-06-17T01:48:57.307Z,60
2018-06-17T01:49:09.720Z,60
2018-06-17T01:49:22.115Z,60
2018-06-17T01:49:34.499Z,61
2018-06-17T01:49:46.898Z,61
2018-06-17T01:49:59.316Z,61
2018-06-17T01:50:11.716Z,61
2018-06-17T01:50:24.120Z,61
2018-06-17T01:50:36.720Z,61
2018-06-17T01:50:49.677Z,61
2018-06-17T01:51:02.074Z,61
2018-06-17T01:51:14.468Z,61
2018-06-17T01:51:26.862Z,61
2018-06-17T01:51:39.254Z,61
2018-06-17T01:51:51.880Z,61
2018-06-17T01:52:04.309Z,61
2018-06-17T01:52:16.712Z,61
2018-06-17T01:52:29.165Z,61
2018-06-17T01:52:41.632Z,61
2018-06-17T01:52:54.073Z,61
2018-06-17T01:53:06.533Z,61
2018-06-17T01:53:18.926Z,61
2018-06-17T01:53:31.384Z,61
2018-06-17T01:53:43.944Z,61
2018-06-17T01:53:56.357Z,61
2018-06-17T01:54:08.770Z,61
2018-06-17T01:54:21.178Z,61
2018-06-17T01:54:33.594Z,61
2018-06-17T01:54:45.976Z,61
2018-06-17T01:54:58.357Z,61
2018-06-17T01:55:10.759Z,61
2018-06-17T01:55:23.171Z,61
2018-06-17T01:55:35.577Z,61
2018-06-17T01:55:47.988Z,61
2018-06-17T01:56:00.379Z,61
2018-06-17T01:56:12.781Z,61
2018-06-17T01:56:25.178Z,61
2018-06-17T01:56:37.579Z,61
2018-06-17T01:56:50.026Z,61
2018-06-17T01:57:02.433Z,61
2018-06-17T01:57:14.834Z,61
2018-06-17T01:57:27.216Z,61
2018-06-17T01:57:39.612Z,61
2018-06-17T01:57:52.044Z,61
2018-06-17T01:58:04.427Z,61
2018-06-17T01:58:16.822Z,61
2018-06-17T01:58:29.216Z,61
2018-06-17T01:58:41.602Z,61
2018-06-17T01:58:54.049Z,61
2018-06-17T01:59:06.462Z,61
2018-06-17T01:59:18.919Z,61
2018-06-17T01:59:31.315Z,61
2018-06-17T01:59:43.701Z,61
2018-06-17T01:59:56.132Z,61
2018-06-17T02:00:08.546Z,61
2018-06-17T02:00:20.974Z,61
2018-06-17T02:00:33.429Z,61
2018-06-17T02:00:45.853Z,61
2018-06-17T02:00:58.449Z,61
2018-06-17T02:01:10.927Z,61
2018-06-17T02:01:23.406Z,61
2018-06-17T02:01:35.806Z,61
2018-06-17T02:01:48.213Z,61
2018-06-17T02:02:00.668Z,61
2018-06-17T02:02:13.087Z,61
2018-06-17T02:02:25.491Z,61
2018-06-17T02:02:38.066Z,61
2018-06-17T02:02:50.470Z,61
2018-06-17T02:03:02.889Z,61
2018-06-17T02:03:15.313Z,61
2018-06-17T02:03:27.739Z,61
2018-06-17T02:03:40.157Z,61
2018-06-17T02:03:52.565Z,61
2018-06-17T02:04:04.963Z,61
2018-06-17T02:04:17.410Z,61
2018-06-17T02:04:29.879Z,61
2018-06-17T02:04:42.278Z,61
2018-06-17T02:04:54.697Z,61
2018-06-17T02:05:07.108Z,62
2018-06-17T02:05:19.518Z,62
2018-06-17T02:05:31.938Z,62
2018-06-17T02:05:44.352Z,62
2018-06-17T02:05:56.766Z,62
2018-06-17T02:06:09.173Z,62
2018-06-17T02:06:21.574Z,62
2018-06-17T02:06:34.018Z,62
2018-06-17T02:06:46.419Z,62
2018-06-17T02:06:59.106Z,62
2018-06-17T02:07:11.663Z,62
2018-06-17T02:07:24.067Z,62
2018-06-17T02:07:36.467Z,62
2018-06-17T02:07:48.861Z,62
2018-06-17T02:08:01.271Z,62
2018-06-17T02:08:13.696Z,62
2018-06-17T02:08:26.164Z,62
2018-06-17T02:08:38.541Z,62
2018-06-17T02:08:50.946Z,62
2018-06-17T02:09:03.344Z,62
2018-06-17T02:09:15.760Z,62
2018-06-17T02:09:28.152Z,62
2018-06-17T02:09:40.583Z,62
2018-06-17T02:09:52.974Z,62
2018-06-17T02:10:05.384Z,62
2018-06-17T02:10:17.770Z,62
2018-06-17T02:10:30.160Z,62
2018-06-17T02:10:42.584Z,62
2018-06-17T02:10:54.987Z,63
2018-06-17T02:11:07.392Z,63
2018-06-17T02:11:19.802Z,63
2018-06-17T02:11:32.195Z,63
2018-06-17T02:11:44.613Z,63
2018-06-17T02:11:57.004Z,63
2018-06-17T02:12:09.473Z,63
2018-06-17T02:12:21.869Z,63
2018-06-17T02:12:34.278Z,63
2018-06-17T02:12:46.681Z,63
2018-06-17T02:12:59.061Z,63
2018-06-17T02:13:11.468Z,63
2018-06-17T02:13:23.865Z,63
2018-06-17T02:13:36.299Z,63
2018-06-17T02:13:48.726Z,63
2018-06-17T02:14:01.140Z,63
2018-06-17T02:14:13.616Z,63
2018-06-17T02:14:26.000Z,63
2018-06-17T02:14:38.401Z,63
2018-06-17T02:14:50.809Z,63
2018-06-17T02:15:03.211Z,63
2018-06-17T02:15:15.616Z,63
2018-06-17T02:15:27.996Z,63
2018-06-17T02:15:40.407Z,63
2018-06-17T02:15:52.819Z,63
2018-06-17T02:16:05.224Z,63
2018-06-17T02:16:17.659Z,63
2018-06-17T02:16:30.067Z,63
2018-06-17T02:16:42.457Z,63
2018-06-17T02:16:54.843Z,63
2018-06-17T02:17:07.271Z,63
2018-06-17T02:17:19.676Z,63
2018-06-17T02:17:32.084Z,63
2018-06-17T02:17:44.475Z,63
2018-06-17T02:17:57.008Z,63
2018-06-17T02:18:09.409Z,63
2018-06-17T02:18:21.832Z,63
2018-06-17T02:18:34.239Z,63
2018-06-17T02:18:46.641Z,63
2018-06-17T02:18:59.038Z,63
2018-06-17T02:19:11.687Z,63
2018-06-17T02:19:24.103Z,63
2018-06-17T02:19:36.521Z,63
2018-06-17T02:19:48.919Z,63
2018-06-17T02:20:01.348Z,63
2018-06-17T02:20:13.734Z,63
2018-06-17T02:20:26.160Z,63
2018-06-17T02:20:38.549Z,63
2018-06-17T02:20:50.936Z,63
2018-06-17T02:21:03.332Z,63
2018-06-17T02:21:15.725Z,63
2018-06-17T02:21:28.140Z,63
2018-06-17T02:21:40.551Z,63
2018-06-17T02:21:52.940Z,63
2018-06-17T02:22:05.384Z,63
2018-06-17T02:22:17.763Z,63
2018-06-17T02:22:30.170Z,63
2018-06-17T02:22:42.585Z,63
2018-06-17T02:22:54.990Z,63
2018-06-17T02:23:07.428Z,63
2018-06-17T02:23:19.812Z,63
2018-06-17T02:23:32.201Z,63
2018-06-17T02:23:44.602Z,63
2018-06-17T02:23:57.013Z,63
2018-06-17T02:24:09.655Z,63
2018-06-17T02:24:22.047Z,63
2018-06-17T02:24:34.449Z,63
2018-06-17T02:24:46.871Z,63
2018-06-17T02:24:59.489Z,63
2018-06-17T02:25:11.890Z,63
2018-06-17T02:25:24.284Z,63
2018-06-17T02:25:36.690Z,63
2018-06-17T02:25:49.099Z,63
2018-06-17T02:26:01.484Z,63
2018-06-17T02:26:13.907Z,63
2018-06-17T02:26:26.297Z,63
2018-06-17T02:26:38.713Z,63
2018-06-17T02:26:51.099Z,63
2018-06-17T02:27:03.539Z,63
2018-06-17T02:27:15.936Z,64
2018-06-17T02:27:28.451Z,64
2018-06-17T02:27:40.857Z,64
2018-06-17T02:27:53.252Z,64
2018-06-17T02:28:05.660Z,64
2018-06-17T02:28:18.047Z,64
2018-06-17T02:28:30.443Z,64
2018-06-17T02:28:42.839Z,64
2018-06-17T02:28:55.240Z,64
2018-06-17T02:29:07.625Z,64
2018-06-17T02:29:20.042Z,64
2018-06-17T02:29:32.441Z,64
2018-06-17T02:29:44.843Z,64
2018-06-17T02:29:57.241Z,64
2018-06-17T02:30:09.658Z,64
2018-06-17T02:30:22.081Z,64
2018-06-17T02:30:34.492Z,64
2018-06-17T02:30:46.910Z,64
2018-06-17T02:30:59.319Z,64
2018-06-17T02:31:11.760Z,64
2018-06-17T02:31:24.184Z,64
2018-06-17T02:31:36.605Z,64
2018-06-17T02:31:49.109Z,64
2018-06-17T02:32:01.511Z,64
2018-06-17T02:32:13.946Z,64
2018-06-17T02:32:26.418Z,64
2018-06-17T02:32:38.910Z,64
2018-06-17T02:32:51.340Z,64
2018-06-17T02:33:03.799Z,64
2018-06-17T02:33:16.421Z,64
2018-06-17T02:33:28.836Z,64
2018-06-17T02:33:41.321Z,64
2018-06-17T02:33:53.752Z,64
2018-06-17T02:34:06.176Z,64
2018-06-17T02:34:18.576Z,64
2018-06-17T02:34:31.019Z,64
2018-06-17T02:34:43.434Z,64
2018-06-17T02:34:55.908Z,64
2018-06-17T02:35:08.338Z,64
2018-06-17T02:35:20.764Z,64
2018-06-17T02:35:33.202Z,64
2018-06-17T02:35:45.610Z,64
2018-06-17T02:35:58.023Z,64
2018-06-17T02:36:10.438Z,64
2018-06-17T02:36:22.889Z,64
2018-06-17T02:36:35.296Z,64
2018-06-17T02:36:47.730Z,64
2018-06-17T02:37:00.189Z,64
2018-06-17T02:37:12.645Z,64
2018-06-17T02:37:25.044Z,65
2018-06-17T02:37:37.468Z,65
2018-06-17T02:37:49.894Z,65
2018-06-17T02:38:02.330Z,65
2018-06-17T02:38:14.822Z,65
2018-06-17T02:38:27.253Z,65
2018-06-17T02:38:39.659Z,65
2018-06-17T02:38:52.070Z,65
2018-06-17T02:39:04.549Z,65
2018-06-17T02:39:16.963Z,65
2018-06-17T02:39:29.371Z,65
2018-06-17T02:39:41.783Z,65
2018-06-17T02:39:54.214Z,65
2018-06-17T02:40:06.630Z,64
2018-06-17T02:40:19.053Z,64
2018-06-17T02:40:31.616Z,64
2018-06-17T02:40:44.022Z,64
2018-06-17T02:40:56.438Z,64
2018-06-17T02:41:08.836Z,64
2018-06-17T02:41:21.272Z,64
2018-06-17T02:41:33.715Z,64
2018-06-17T02:41:46.237Z,65
2018-06-17T02:41:58.652Z,65
2018-06-17T02:42:11.123Z,65
2018-06-17T02:42:23.538Z,65
2018-06-17T02:42:35.938Z,65
2018-06-17T02:42:48.354Z,65
2018-06-17T02:43:00.797Z,65
2018-06-17T02:43:13.256Z,65
2018-06-17T02:43:25.714Z,65
2018-06-17T02:43:38.141Z,65
2018-06-17T02:43:50.542Z,65
2018-06-17T02:44:02.986Z,65
2018-06-17T02:44:15.470Z,65
2018-06-17T02:44:27.878Z,65
2018-06-17T02:44:40.283Z,65
2018-06-17T02:44:52.708Z,65
2018-06-17T02:45:05.124Z,65
2018-06-17T02:45:17.538Z,65
2018-06-17T02:45:29.955Z,65
2018-06-17T02:45:42.380Z,65
2018-06-17T02:45:54.943Z,65
2018-06-17T02:46:07.361Z,65
2018-06-17T02:46:19.823Z,65
2018-06-17T02:46:32.230Z,65
2018-06-17T02:46:44.670Z,65
2018-06-17T02:46:57.080Z,65
2018-06-17T02:47:09.514Z,65
2018-06-17T02:47:21.939Z,65
2018-06-17T02:47:34.355Z,65
2018-06-17T02:47:46.792Z,65
2018-06-17T02:47:59.226Z,65
2018-06-17T02:48:11.635Z,65
2018-06-17T02:48:24.028Z,65
2018-06-17T02:48:36.579Z,65
2018-06-17T02:48:49.020Z,65
2018-06-17T02:49:01.428Z,65
2018-06-17T02:49:13.825Z,65
2018-06-17T02:49:26.243Z,65
2018-06-17T02:49:38.650Z,65
2018-06-17T02:49:51.133Z,65
2018-06-17T02:50:03.557Z,65
2018-06-17T02:50:15.958Z,65
2018-06-17T02:50:28.387Z,65
2018-06-17T02:50:40.802Z,65
2018-06-17T02:50:53.254Z,65
2018-06-17T02:51:05.674Z,65
2018-06-17T02:51:18.080Z,65
2018-06-17T02:51:30.514Z,65
2018-06-17T02:51:42.908Z,65
2018-06-17T02:51:55.325Z,65
2018-06-17T02:52:07.767Z,65
2018-06-17T02:52:20.227Z,65
2018-06-17T02:52:32.629Z,65
2018-06-17T02:52:45.052Z,65
2018-06-17T02:52:57.433Z,65
2018-06-17T02:53:09.845Z,65
2018-06-17T02:53:22.253Z,65
2018-06-17T02:53:34.681Z,65
2018-06-17T02:53:47.083Z,65
2018-06-17T02:53:59.497Z,65
2018-06-17T02:54:11.921Z,65
2018-06-17T02:54:24.487Z,65
2018-06-17T02:54:36.927Z,66
2018-06-17T02:54:49.407Z,66
2018-06-17T02:55:01.852Z,66
2018-06-17T02:55:14.274Z,66
2018-06-17T02:55:26.708Z,66
2018-06-17T02:55:39.161Z,66
2018-06-17T02:55:51.601Z,66
2018-06-17T02:56:04.016Z,66
2018-06-17T02:56:16.431Z,66
2018-06-17T02:56:28.835Z,66
2018-06-17T02:56:41.229Z,66
2018-06-17T02:56:53.677Z,66
2018-06-17T02:57:06.108Z,66